createdAt,value
2023-04-16T00:00:51.032Z,11.40
2023-04-16T00:01:53.686Z,11.50
2023-04-16T00:02:56.394Z,10.80
2023-04-16T00:03:59.615Z,11.10
2023-04-16T00:05:02.574Z,10.77
2023-04-16T00:06:05.215Z,11.40
2023-04-16T00:07:08.604Z,10.83
2023-04-16T00:08:11.189Z,11.13
2023-04-16T00:09:13.743Z,10.53
2023-04-16T00:10:16.528Z,10.37
2023-04-16T00:11:19.087Z,10.00
2023-04-16T00:12:21.751Z,10.60
2023-04-16T00:13:24.293Z,10.27
2023-04-16T00:14:26.953Z,10.27
2023-04-16T00:15:29.428Z,10.83
2023-04-16T00:16:32.186Z,10.77
2023-04-16T00:17:34.684Z,10.40
2023-04-16T00:18:37.182Z,10.47
2023-04-16T00:19:39.699Z,10.63
2023-04-16T00:20:42.223Z,10.30
2023-04-16T00:21:44.780Z,9.90
2023-04-16T00:22:47.287Z,10.80
2023-04-16T00:23:49.622Z,10.70
2023-04-16T00:24:52.311Z,11.20
2023-04-16T00:25:57.380Z,10.87
2023-04-16T00:26:59.849Z,10.40
2023-04-16T00:28:02.138Z,10.93
2023-04-16T00:29:04.746Z,10.33
2023-04-16T00:30:07.862Z,10.60
2023-04-16T00:31:10.333Z,10.33
2023-04-16T00:32:12.682Z,10.50
2023-04-16T00:33:16.092Z,10.37
2023-04-16T00:34:18.470Z,10.53
2023-04-16T00:35:21.074Z,9.87
2023-04-16T00:36:24.638Z,10.33
2023-04-16T00:37:27.142Z,9.77
2023-04-16T00:38:30.612Z,10.20
2023-04-16T00:39:33.075Z,9.60
2023-04-16T00:40:35.561Z,9.73
2023-04-16T00:41:38.842Z,9.63
2023-04-16T00:42:41.626Z,9.63
2023-04-16T00:43:43.958Z,9.50
2023-04-16T00:44:46.556Z,9.27
2023-04-16T00:45:49.131Z,9.00
2023-04-16T00:46:51.899Z,9.30
2023-04-16T00:47:54.458Z,9.07
2023-04-16T00:48:57.688Z,9.50
2023-04-16T00:50:00.131Z,8.80
2023-04-16T00:51:05.217Z,8.97
2023-04-16T00:52:08.054Z,8.53
2023-04-16T00:53:10.382Z,8.60
2023-04-16T00:54:12.975Z,8.43
2023-04-16T00:55:19.259Z,8.83
2023-04-16T00:56:24.403Z,8.20
2023-04-16T00:57:27.330Z,8.40
2023-04-16T00:58:30.409Z,8.50
2023-04-16T00:59:33.102Z,8.40
2023-04-16T01:00:35.565Z,8.83
2023-04-16T01:01:38.067Z,8.63
2023-04-16T01:02:40.519Z,8.03
2023-04-16T01:03:47.796Z,8.33
2023-04-16T01:04:50.794Z,8.03
2023-04-16T01:05:53.246Z,8.60
2023-04-16T01:06:56.854Z,8.53
2023-04-16T01:08:01.424Z,8.00
2023-04-16T01:09:04.109Z,7.90
2023-04-16T01:10:07.179Z,8.27
2023-04-16T01:11:11.189Z,7.83
2023-04-16T01:12:15.108Z,8.50
2023-04-16T01:13:17.576Z,8.07
2023-04-16T01:14:20.016Z,8.00
2023-04-16T01:15:22.379Z,8.03
2023-04-16T01:16:24.768Z,8.03
2023-04-16T01:17:27.211Z,7.80
2023-04-16T01:18:29.648Z,8.40
2023-04-16T01:19:32.114Z,7.93
2023-04-16T01:20:37.598Z,7.60
2023-04-16T01:21:40.035Z,7.80
2023-04-16T01:22:43.010Z,8.00
2023-04-16T01:23:45.372Z,7.60
2023-04-16T01:24:48.438Z,8.17
2023-04-16T01:25:51.328Z,8.00
2023-04-16T01:26:58.181Z,8.47
2023-04-16T01:28:01.150Z,8.33
2023-04-16T01:29:03.622Z,7.70
2023-04-16T01:30:06.705Z,8.00
2023-04-16T01:31:27.706Z,8.00
2023-04-16T01:32:38.551Z,7.93
2023-04-16T01:33:41.229Z,7.50
2023-04-16T01:34:44.630Z,8.03
2023-04-16T01:35:47.253Z,8.37
2023-04-16T01:36:52.114Z,7.80
2023-04-16T01:37:54.629Z,7.70
2023-04-16T01:38:57.176Z,7.97
2023-04-16T01:39:59.907Z,8.40
2023-04-16T01:41:02.291Z,8.27
2023-04-16T01:42:05.966Z,8.03
2023-04-16T01:43:08.518Z,8.07
2023-04-16T01:44:11.198Z,8.03
2023-04-16T01:45:13.970Z,7.83
2023-04-16T01:46:29.509Z,8.40
2023-04-16T01:47:35.209Z,7.77
2023-04-16T01:48:37.636Z,7.83
2023-04-16T01:49:41.061Z,8.20
2023-04-16T01:50:43.522Z,7.83
2023-04-16T01:51:46.063Z,8.00
2023-04-16T01:52:48.431Z,7.93
2023-04-16T01:53:51.294Z,9.03
2023-04-16T01:54:53.957Z,8.40
2023-04-16T01:55:56.410Z,8.40
2023-04-16T01:56:58.895Z,8.33
2023-04-16T01:58:01.762Z,7.97
2023-04-16T01:59:08.604Z,8.40
2023-04-16T02:00:15.394Z,8.47
2023-04-16T02:01:24.463Z,7.87
2023-04-16T02:02:29.569Z,8.07
2023-04-16T02:03:32.594Z,8.13
2023-04-16T02:04:35.289Z,8.33
2023-04-16T02:05:37.656Z,8.27
2023-04-16T02:06:40.320Z,8.50
2023-04-16T02:07:45.377Z,8.63
2023-04-16T02:08:49.767Z,8.47
2023-04-16T02:09:56.761Z,8.17
2023-04-16T02:11:01.035Z,8.70
2023-04-16T02:12:04.234Z,8.53
2023-04-16T02:13:07.901Z,8.67
2023-04-16T02:14:10.605Z,8.20
2023-04-16T02:15:13.766Z,8.83
2023-04-16T02:16:16.471Z,8.53
2023-04-16T02:17:39.073Z,8.60
2023-04-16T02:18:46.138Z,8.30
2023-04-16T02:19:50.639Z,8.00
2023-04-16T02:20:53.623Z,7.73
2023-04-16T02:21:56.422Z,8.27
2023-04-16T02:22:58.741Z,8.53
2023-04-16T02:24:01.931Z,8.33
2023-04-16T02:25:06.656Z,8.53
2023-04-16T02:26:09.322Z,8.40
2023-04-16T02:27:12.709Z,8.20
2023-04-16T02:28:17.420Z,8.00
2023-04-16T02:29:22.969Z,8.00
2023-04-16T02:30:38.839Z,8.63
2023-04-16T02:31:42.366Z,8.60
2023-04-16T02:32:46.472Z,8.03
2023-04-16T02:33:49.522Z,8.67
2023-04-16T02:34:52.091Z,8.57
2023-04-16T02:35:54.553Z,8.67
2023-04-16T02:36:58.607Z,8.47
2023-04-16T02:38:01.839Z,9.17
2023-04-16T02:39:04.901Z,8.80
2023-04-16T02:40:08.085Z,8.73
2023-04-16T02:41:10.775Z,8.77
2023-04-16T02:42:15.781Z,9.13
2023-04-16T02:43:18.148Z,8.67
2023-04-16T02:44:21.004Z,8.13
2023-04-16T02:45:25.753Z,7.83
2023-04-16T02:46:29.279Z,8.57
2023-04-16T02:47:31.999Z,8.60
2023-04-16T02:48:34.563Z,8.87
2023-04-16T02:49:37.114Z,8.70
2023-04-16T02:50:39.594Z,8.53
2023-04-16T02:51:42.128Z,8.50
2023-04-16T02:52:44.565Z,8.80
2023-04-16T02:53:46.995Z,8.37
2023-04-16T02:54:50.903Z,8.77
2023-04-16T02:55:55.688Z,8.53
2023-04-16T02:56:58.249Z,8.60
2023-04-16T02:58:00.988Z,8.07
2023-04-16T02:59:03.648Z,8.13
2023-04-16T03:00:06.778Z,8.73
2023-04-16T03:01:09.419Z,8.70
2023-04-16T03:02:12.367Z,8.40
2023-04-16T03:03:14.867Z,8.60
2023-04-16T03:04:17.531Z,8.70
2023-04-16T03:05:20.032Z,8.43
2023-04-16T03:06:23.820Z,8.37
2023-04-16T03:07:29.686Z,8.40
2023-04-16T03:08:32.451Z,8.63
2023-04-16T03:09:35.976Z,8.30
2023-04-16T03:10:38.651Z,8.50
2023-04-16T03:11:41.154Z,8.90
2023-04-16T03:12:43.781Z,8.40
2023-04-16T03:13:46.628Z,8.80
2023-04-16T03:14:52.252Z,8.97
2023-04-16T03:15:54.929Z,8.10
2023-04-16T03:16:58.351Z,8.70
2023-04-16T03:18:01.264Z,8.37
2023-04-16T03:19:03.957Z,7.77
2023-04-16T03:20:07.454Z,8.60
2023-04-16T03:21:10.114Z,8.27
2023-04-16T03:22:13.911Z,8.40
2023-04-16T03:23:16.605Z,8.00
2023-04-16T03:24:20.270Z,8.20
2023-04-16T03:25:24.707Z,8.40
2023-04-16T03:26:27.455Z,8.43
2023-04-16T03:27:31.392Z,8.20
2023-04-16T03:28:33.909Z,8.63
2023-04-16T03:29:39.538Z,8.23
2023-04-16T03:30:43.755Z,8.60
2023-04-16T03:31:46.640Z,8.57
2023-04-16T03:32:50.054Z,8.40
2023-04-16T03:33:53.106Z,8.30
2023-04-16T03:34:57.296Z,7.73
2023-04-16T03:36:00.669Z,8.40
2023-04-16T03:37:06.544Z,8.43
2023-04-16T03:38:09.062Z,7.93
2023-04-16T03:39:12.116Z,8.13
2023-04-16T03:40:14.772Z,8.23
2023-04-16T03:41:17.772Z,8.00
2023-04-16T03:42:20.343Z,8.63
2023-04-16T03:43:22.848Z,8.07
2023-04-16T03:44:25.564Z,8.00
2023-04-16T03:45:28.709Z,7.83
2023-04-16T03:46:31.220Z,8.00
2023-04-16T03:47:34.444Z,8.10
2023-04-16T03:48:39.115Z,7.80
2023-04-16T03:49:41.695Z,8.07
2023-04-16T03:50:50.689Z,7.90
2023-04-16T03:51:55.492Z,7.90
2023-04-16T03:52:58.029Z,7.30
2023-04-16T03:54:06.053Z,8.10
2023-04-16T03:55:09.440Z,8.30
2023-04-16T03:56:12.012Z,8.00
2023-04-16T03:57:16.110Z,7.57
2023-04-16T03:58:19.904Z,7.70
2023-04-16T03:59:23.365Z,7.90
2023-04-16T04:00:26.422Z,8.00
2023-04-16T04:01:42.056Z,7.83
2023-04-16T04:02:44.862Z,7.57
2023-04-16T04:03:53.604Z,8.13
2023-04-16T04:04:56.619Z,7.80
2023-04-16T04:05:59.174Z,7.77
2023-04-16T04:07:08.062Z,7.90
2023-04-16T04:08:11.147Z,8.60
2023-04-16T04:09:15.424Z,7.83
2023-04-16T04:10:18.037Z,7.80
2023-04-16T04:11:23.270Z,8.10
2023-04-16T04:12:26.222Z,7.83
2023-04-16T04:13:28.697Z,7.90
2023-04-16T04:14:32.766Z,7.93
2023-04-16T04:15:35.735Z,7.73
2023-04-16T04:16:38.285Z,7.60
2023-04-16T04:17:41.255Z,7.70
2023-04-16T04:18:44.549Z,8.00
2023-04-16T04:19:59.980Z,7.90
2023-04-16T04:21:08.181Z,7.77
2023-04-16T04:22:10.844Z,7.93
2023-04-16T04:23:13.891Z,7.53
2023-04-16T04:24:16.609Z,7.63
2023-04-16T04:25:19.171Z,7.53
2023-04-16T04:26:21.885Z,7.70
2023-04-16T04:27:24.482Z,7.23
2023-04-16T04:28:26.965Z,7.47
2023-04-16T04:29:29.634Z,7.53
2023-04-16T04:30:32.306Z,7.53
2023-04-16T04:31:35.214Z,7.50
2023-04-16T04:32:40.289Z,7.60
2023-04-16T04:33:42.788Z,7.53
2023-04-16T04:34:45.227Z,7.43
2023-04-16T04:35:47.689Z,7.40
2023-04-16T04:36:50.761Z,7.77
2023-04-16T04:37:53.545Z,7.90
2023-04-16T04:38:56.763Z,7.37
2023-04-16T04:40:00.632Z,7.53
2023-04-16T04:41:03.174Z,7.50
2023-04-16T04:42:09.832Z,7.37
2023-04-16T04:43:12.300Z,7.03
2023-04-16T04:44:14.974Z,7.37
2023-04-16T04:45:17.742Z,7.47
2023-04-16T04:46:20.394Z,7.77
2023-04-16T04:47:23.057Z,7.30
2023-04-16T04:48:28.726Z,7.50
2023-04-16T04:49:32.360Z,7.57
2023-04-16T04:50:35.035Z,7.57
2023-04-16T04:51:38.577Z,7.63
2023-04-16T04:52:41.289Z,7.53
2023-04-16T04:53:43.947Z,7.03
2023-04-16T04:54:47.516Z,7.27
2023-04-16T04:55:53.133Z,7.63
2023-04-16T04:56:58.169Z,7.47
2023-04-16T04:58:01.043Z,7.27
2023-04-16T04:59:03.622Z,7.40
2023-04-16T05:00:06.984Z,7.60
2023-04-16T05:01:17.997Z,7.27
2023-04-16T05:02:20.863Z,7.60
2023-04-16T05:03:23.738Z,7.60
2023-04-16T05:04:26.284Z,7.30
2023-04-16T05:05:28.773Z,7.73
2023-04-16T05:06:31.818Z,7.40
2023-04-16T05:07:36.036Z,7.40
2023-04-16T05:08:38.539Z,7.20
2023-04-16T05:09:41.469Z,7.43
2023-04-16T05:10:44.264Z,7.47
2023-04-16T05:11:46.859Z,7.83
2023-04-16T05:12:49.497Z,8.57
2023-04-16T05:13:52.346Z,7.60
2023-04-16T05:14:56.238Z,7.30
2023-04-16T05:15:59.008Z,7.40
2023-04-16T05:17:03.172Z,7.47
2023-04-16T05:18:05.815Z,7.87
2023-04-16T05:19:08.680Z,7.93
2023-04-16T05:20:11.646Z,7.63
2023-04-16T05:21:14.308Z,7.20
2023-04-16T05:22:19.342Z,7.53
2023-04-16T05:23:21.919Z,7.80
2023-04-16T05:24:24.445Z,7.40
2023-04-16T05:25:27.128Z,7.67
2023-04-16T05:26:29.610Z,7.60
2023-04-16T05:27:32.175Z,7.73
2023-04-16T05:28:34.876Z,7.53
2023-04-16T05:29:37.529Z,7.77
2023-04-16T05:30:40.024Z,7.67
2023-04-16T05:31:42.954Z,8.03
2023-04-16T05:32:45.573Z,7.70
2023-04-16T05:33:48.605Z,8.03
2023-04-16T05:34:51.183Z,7.73
2023-04-16T05:35:54.649Z,7.27
2023-04-16T05:36:57.261Z,7.97
2023-04-16T05:37:59.786Z,7.80
2023-04-16T05:39:02.480Z,8.00
2023-04-16T05:40:05.654Z,8.20
2023-04-16T05:41:08.397Z,8.07
2023-04-16T05:42:11.100Z,7.80
2023-04-16T05:43:13.946Z,7.70
2023-04-16T05:44:16.609Z,7.40
2023-04-16T05:45:19.704Z,8.10
2023-04-16T05:46:22.379Z,7.70
2023-04-16T05:47:25.369Z,8.23
2023-04-16T05:48:27.907Z,8.40
2023-04-16T05:49:30.472Z,8.20
2023-04-16T05:50:33.155Z,8.33
2023-04-16T05:51:38.062Z,8.10
2023-04-16T05:52:40.751Z,8.37
2023-04-16T05:53:46.275Z,8.23
2023-04-16T05:54:50.218Z,8.20
2023-04-16T05:55:52.845Z,8.33
2023-04-16T05:56:55.502Z,8.23
2023-04-16T05:57:58.184Z,8.03
2023-04-16T05:59:00.744Z,8.57
2023-04-16T06:00:04.026Z,8.20
2023-04-16T06:01:14.582Z,8.33
2023-04-16T06:02:17.319Z,9.10
2023-04-16T06:03:20.023Z,8.40
2023-04-16T06:04:22.964Z,8.30
2023-04-16T06:05:27.207Z,9.10
2023-04-16T06:06:29.874Z,8.77
2023-04-16T06:07:32.651Z,8.70
2023-04-16T06:08:35.636Z,8.67
2023-04-16T06:09:38.599Z,8.70
2023-04-16T06:10:41.275Z,8.93
2023-04-16T06:11:43.842Z,7.90
2023-04-16T06:12:46.706Z,8.00
2023-04-16T06:13:49.284Z,8.23
2023-04-16T06:14:53.210Z,8.43
2023-04-16T06:15:56.057Z,8.20
2023-04-16T06:16:58.821Z,8.40
2023-04-16T06:18:01.630Z,8.50
2023-04-16T06:19:04.285Z,8.20
2023-04-16T06:20:07.627Z,8.43
2023-04-16T06:21:10.739Z,8.20
2023-04-16T06:22:13.477Z,8.10
2023-04-16T06:23:16.383Z,8.23
2023-04-16T06:24:19.139Z,8.80
2023-04-16T06:25:21.922Z,8.60
2023-04-16T06:26:24.591Z,8.33
2023-04-16T06:27:27.568Z,8.83
2023-04-16T06:28:31.330Z,8.73
2023-04-16T06:29:41.040Z,8.83
2023-04-16T06:30:44.737Z,9.43
2023-04-16T06:31:56.103Z,9.40
2023-04-16T06:32:59.515Z,9.23
2023-04-16T06:34:02.237Z,9.10
2023-04-16T06:35:05.288Z,9.13
2023-04-16T06:36:07.987Z,9.07
2023-04-16T06:37:10.856Z,9.60
2023-04-16T06:38:13.401Z,9.47
2023-04-16T06:39:16.282Z,9.00
2023-04-16T06:40:19.175Z,8.60
2023-04-16T06:41:23.167Z,9.20
2023-04-16T06:42:26.531Z,8.40
2023-04-16T06:43:30.233Z,8.73
2023-04-16T06:44:33.001Z,8.80
2023-04-16T06:45:35.773Z,8.93
2023-04-16T06:46:38.378Z,9.03
2023-04-16T06:47:41.238Z,9.43
2023-04-16T06:48:43.659Z,8.63
2023-04-16T06:49:46.036Z,9.13
2023-04-16T06:50:48.480Z,9.20
2023-04-16T06:51:50.915Z,9.03
2023-04-16T06:52:53.175Z,8.73
2023-04-16T06:53:55.614Z,8.83
2023-04-16T06:54:58.380Z,9.13
2023-04-16T06:56:00.685Z,9.50
2023-04-16T06:57:03.005Z,8.73
2023-04-16T06:58:05.303Z,9.00
2023-04-16T06:59:08.189Z,8.83
2023-04-16T07:00:11.294Z,8.93
2023-04-16T07:01:13.733Z,8.67
2023-04-16T07:02:16.198Z,9.23
2023-04-16T07:03:18.611Z,9.57
2023-04-16T07:04:21.304Z,8.83
2023-04-16T07:05:23.739Z,9.40
2023-04-16T07:06:27.349Z,9.40
2023-04-16T07:07:29.646Z,9.20
2023-04-16T07:08:31.945Z,9.67
2023-04-16T07:09:34.372Z,9.40
2023-04-16T07:10:36.706Z,9.13
2023-04-16T07:11:39.069Z,8.60
2023-04-16T07:12:41.433Z,9.30
2023-04-16T07:13:43.837Z,9.40
2023-04-16T07:14:47.284Z,9.40
2023-04-16T07:15:49.610Z,8.97
2023-04-16T07:16:52.097Z,9.07
2023-04-16T07:17:54.699Z,9.63
2023-04-16T07:18:56.988Z,8.93
2023-04-16T07:19:59.231Z,10.13
2023-04-16T07:21:01.686Z,10.10
2023-04-16T07:22:04.784Z,9.70
2023-04-16T07:23:07.094Z,10.50
2023-04-16T07:24:11.099Z,10.03
2023-04-16T07:25:13.484Z,9.40
2023-04-16T07:26:16.359Z,9.70
2023-04-16T07:27:21.526Z,10.00
2023-04-16T07:28:29.220Z,9.07
2023-04-16T07:29:31.472Z,10.00
2023-04-16T07:30:37.123Z,9.53
2023-04-16T07:31:42.533Z,9.50
2023-04-16T07:32:44.910Z,9.33
2023-04-16T07:33:48.467Z,8.93
2023-04-16T07:34:50.839Z,9.63
2023-04-16T07:35:53.134Z,9.63
2023-04-16T07:36:55.835Z,9.60
2023-04-16T07:37:58.224Z,9.43
2023-04-16T07:39:00.794Z,9.77
2023-04-16T07:40:05.543Z,9.23
2023-04-16T07:41:08.502Z,10.37
2023-04-16T07:42:11.141Z,10.10
2023-04-16T07:43:15.445Z,10.30
2023-04-16T07:44:20.881Z,10.60
2023-04-16T07:45:23.906Z,10.30
2023-04-16T07:46:30.467Z,10.23
2023-04-16T07:47:38.503Z,10.83
2023-04-16T07:48:41.019Z,10.57
2023-04-16T07:49:44.536Z,10.60
2023-04-16T07:50:48.178Z,10.63
2023-04-16T07:51:50.638Z,10.90
2023-04-16T07:52:54.035Z,10.97
2023-04-16T07:53:56.374Z,11.07
2023-04-16T07:55:34.202Z,11.33
2023-04-16T07:56:36.621Z,11.13
2023-04-16T07:57:40.397Z,10.60
2023-04-16T07:58:42.695Z,11.37
2023-04-16T07:59:46.466Z,10.60
2023-04-16T08:00:50.774Z,10.57
2023-04-16T08:01:54.319Z,10.87
2023-04-16T08:02:56.896Z,10.47
2023-04-16T08:03:59.901Z,11.07
2023-04-16T08:05:02.679Z,11.17
2023-04-16T08:06:06.127Z,11.60
2023-04-16T08:07:08.421Z,10.70
2023-04-16T08:08:11.992Z,11.30
2023-04-16T08:09:14.334Z,11.03
2023-04-16T08:10:16.947Z,11.30
2023-04-16T08:11:19.234Z,11.07
2023-04-16T08:12:21.946Z,10.40
2023-04-16T08:13:24.246Z,10.97
2023-04-16T08:14:26.907Z,11.57
2023-04-16T08:15:29.574Z,10.40
2023-04-16T08:16:32.019Z,11.27
2023-04-16T08:17:35.150Z,10.50
2023-04-16T08:18:37.607Z,11.00
2023-04-16T08:19:39.924Z,10.90
2023-04-16T08:20:42.925Z,10.90
2023-04-16T08:21:45.617Z,11.10
2023-04-16T08:22:48.914Z,11.30
2023-04-16T08:23:51.560Z,11.27
2023-04-16T08:24:54.008Z,11.07
2023-04-16T08:25:56.285Z,11.53
2023-04-16T08:27:08.061Z,11.13
2023-04-16T08:28:19.896Z,11.30
2023-04-16T08:29:22.244Z,11.60
2023-04-16T08:30:24.747Z,11.00
2023-04-16T08:31:27.283Z,11.20
2023-04-16T08:32:31.534Z,10.47
2023-04-16T08:33:33.908Z,11.60
2023-04-16T08:34:37.653Z,12.38
2023-04-16T08:35:40.478Z,11.53
2023-04-16T08:36:42.844Z,11.80
2023-04-16T08:37:46.305Z,12.27
2023-04-16T08:38:48.563Z,12.10
2023-04-16T08:39:50.921Z,12.27
2023-04-16T08:40:55.264Z,11.67
2023-04-16T08:41:59.160Z,11.63
2023-04-16T08:43:05.372Z,11.97
2023-04-16T08:44:16.330Z,11.43
2023-04-16T08:45:18.870Z,12.02
2023-04-16T08:46:24.467Z,12.30
2023-04-16T08:47:29.262Z,11.98
2023-04-16T08:48:33.996Z,12.02
2023-04-16T08:49:43.335Z,11.82
2023-04-16T08:50:46.857Z,11.77
2023-04-16T08:51:54.741Z,11.60
2023-04-16T08:52:59.214Z,11.40
2023-04-16T08:54:13.365Z,12.90
2023-04-16T08:55:17.038Z,12.32
2023-04-16T08:56:23.137Z,12.27
2023-04-16T08:57:37.363Z,12.80
2023-04-16T08:58:39.912Z,13.32
2023-04-16T08:59:46.580Z,12.70
2023-04-16T09:00:49.499Z,12.15
2023-04-16T09:01:53.686Z,12.85
2023-04-16T09:02:56.366Z,13.07
2023-04-16T09:03:59.687Z,12.88
2023-04-16T09:05:06.034Z,12.80
2023-04-16T09:06:09.915Z,13.23
2023-04-16T09:07:12.673Z,12.85
2023-04-16T09:08:15.020Z,13.40
2023-04-16T09:09:20.330Z,12.77
2023-04-16T09:10:22.813Z,12.65
2023-04-16T09:11:26.083Z,12.95
2023-04-16T09:12:30.390Z,13.52
2023-04-16T09:13:32.765Z,13.13
2023-04-16T09:14:36.282Z,13.38
2023-04-16T09:15:39.973Z,13.70
2023-04-16T09:16:42.522Z,12.88
2023-04-16T09:17:44.834Z,13.32
2023-04-16T09:18:48.011Z,12.75
2023-04-16T09:19:50.602Z,13.10
2023-04-16T09:20:56.541Z,13.70
2023-04-16T09:21:58.777Z,12.38
2023-04-16T09:23:02.152Z,12.20
2023-04-16T09:24:05.028Z,12.30
2023-04-16T09:25:09.895Z,12.65
2023-04-16T09:26:12.225Z,11.60
2023-04-16T09:27:15.204Z,11.88
2023-04-16T09:28:45.566Z,12.00
2023-04-16T09:29:49.276Z,12.02
2023-04-16T09:30:51.621Z,11.48
2023-04-16T09:32:11.193Z,11.15
2023-04-16T09:33:13.448Z,11.32
2023-04-16T09:34:15.880Z,10.93
2023-04-16T09:35:19.807Z,11.35
2023-04-16T09:36:23.805Z,11.20
2023-04-16T09:37:30.074Z,11.27
2023-04-16T09:38:48.010Z,10.52
2023-04-16T09:40:24.137Z,10.70
2023-04-16T09:41:28.697Z,10.15
2023-04-16T09:42:34.386Z,10.32
2023-04-16T09:43:38.309Z,9.90
2023-04-16T09:44:40.587Z,10.30
2023-04-16T09:45:51.045Z,10.30
2023-04-16T09:46:53.360Z,10.05
2023-04-16T09:48:03.218Z,10.32
2023-04-16T09:49:16.568Z,10.18
2023-04-16T09:50:20.100Z,9.43
2023-04-16T09:51:22.444Z,9.80
2023-04-16T09:52:26.121Z,10.02
2023-04-16T09:53:30.945Z,10.18
2023-04-16T09:54:34.374Z,9.90
2023-04-16T09:55:36.735Z,10.00
2023-04-16T09:56:44.762Z,9.15
2023-04-16T09:57:48.902Z,9.07
2023-04-16T09:58:51.256Z,8.95
2023-04-16T09:59:55.191Z,8.85
2023-04-16T10:01:07.307Z,8.95
2023-04-16T10:02:15.554Z,8.90
2023-04-16T10:03:18.450Z,9.48
2023-04-16T10:04:22.485Z,9.20
2023-04-16T10:05:26.520Z,8.30
2023-04-16T10:06:31.725Z,8.73
2023-04-16T10:07:35.798Z,7.60
2023-04-16T10:08:38.162Z,7.68
2023-04-16T10:09:40.995Z,7.97
2023-04-16T10:10:43.404Z,6.55
2023-04-16T10:11:50.319Z,6.60
2023-04-16T10:12:53.618Z,6.63
2023-04-16T10:13:56.002Z,6.65
2023-04-16T10:14:59.744Z,6.15
2023-04-16T10:16:04.606Z,6.10
2023-04-16T10:17:07.812Z,5.90
2023-04-16T10:18:10.673Z,5.25
2023-04-16T10:19:14.457Z,5.93
2023-04-16T10:20:18.728Z,5.80
2023-04-16T10:21:22.003Z,5.90
2023-04-16T10:22:24.456Z,6.18
2023-04-16T10:23:26.826Z,6.22
2023-04-16T10:24:30.664Z,5.68
2023-04-16T10:25:34.474Z,5.20
2023-04-16T10:26:37.018Z,5.13
2023-04-16T10:27:43.489Z,5.22
2023-04-16T10:28:47.254Z,4.10
2023-04-16T10:29:50.877Z,4.20
2023-04-16T10:30:55.177Z,3.95
2023-04-16T10:31:58.915Z,4.13
2023-04-16T10:33:04.931Z,3.92
2023-04-16T10:34:09.377Z,4.03
2023-04-16T10:35:16.685Z,3.65
2023-04-16T10:36:26.900Z,3.88
2023-04-16T10:37:31.418Z,4.18
2023-04-16T10:38:33.686Z,4.30
2023-04-16T10:39:37.710Z,4.88
2023-04-16T10:40:44.986Z,4.55
2023-04-16T10:41:47.903Z,4.70
2023-04-16T10:43:01.684Z,4.65
2023-04-16T10:44:11.119Z,4.05
2023-04-16T10:45:15.332Z,4.28
2023-04-16T10:46:32.046Z,3.88
2023-04-16T10:47:40.283Z,4.22
2023-04-16T10:48:49.858Z,4.13
2023-04-16T10:49:52.827Z,4.07
2023-04-16T10:50:59.072Z,3.90
2023-04-16T10:52:13.651Z,3.90
2023-04-16T10:53:27.971Z,3.85
2023-04-16T10:54:31.982Z,3.65
2023-04-16T10:55:39.867Z,3.95
2023-04-16T10:56:45.337Z,3.65
2023-04-16T10:57:50.088Z,3.80
2023-04-16T10:58:56.330Z,3.70
2023-04-16T11:00:02.296Z,3.50
2023-04-16T11:01:13.698Z,3.25
2023-04-16T11:02:18.690Z,3.40
2023-04-16T11:03:22.178Z,3.20
2023-04-16T11:04:25.332Z,3.47
2023-04-16T11:05:47.128Z,3.55
2023-04-16T11:07:14.786Z,3.28
2023-04-16T11:08:17.058Z,3.67
2023-04-16T11:10:02.524Z,3.28
2023-04-16T11:11:08.480Z,3.20
2023-04-16T11:12:13.503Z,3.60
2023-04-16T11:13:16.989Z,3.55
2023-04-16T11:14:19.305Z,3.60
2023-04-16T11:15:23.540Z,3.78
2023-04-16T11:16:26.550Z,3.50
2023-04-16T11:17:32.517Z,3.40
2023-04-16T11:18:34.983Z,3.42
2023-04-16T11:19:38.431Z,3.58
2023-04-16T11:20:41.715Z,3.72
2023-04-16T11:21:45.868Z,3.90
2023-04-16T11:22:52.090Z,3.85
2023-04-16T11:23:54.853Z,4.30
2023-04-16T11:24:57.528Z,3.65
2023-04-16T11:26:00.353Z,3.80
2023-04-16T11:27:05.231Z,3.65
2023-04-16T11:28:07.720Z,3.53
2023-04-16T11:29:16.126Z,3.88
2023-04-16T11:30:19.735Z,3.58
2023-04-16T11:31:23.625Z,3.47
2023-04-16T11:32:26.186Z,4.10
2023-04-16T11:33:31.861Z,3.60
2023-04-16T11:34:34.210Z,4.00
2023-04-16T11:35:37.068Z,4.30
2023-04-16T11:36:50.899Z,3.72
2023-04-16T11:37:56.927Z,3.95
2023-04-16T11:39:04.046Z,3.88
2023-04-16T11:40:08.394Z,4.38
2023-04-16T11:41:14.313Z,4.47
2023-04-16T11:42:23.353Z,4.30
2023-04-16T11:43:26.733Z,4.45
2023-04-16T11:44:29.987Z,4.50
2023-04-16T11:45:32.665Z,4.75
2023-04-16T11:46:39.833Z,4.80
2023-04-16T11:47:53.499Z,5.30
2023-04-16T11:48:56.358Z,5.30
2023-04-16T11:50:15.153Z,5.53
2023-04-16T11:51:18.348Z,6.10
2023-04-16T11:52:32.181Z,6.40
2023-04-16T11:53:34.476Z,6.50
2023-04-16T11:54:38.170Z,6.00
2023-04-16T11:55:45.533Z,6.55
2023-04-16T11:56:52.622Z,6.53
2023-04-16T11:57:54.953Z,6.45
2023-04-16T11:59:13.421Z,6.80
2023-04-16T12:00:16.802Z,5.95
2023-04-16T12:01:21.760Z,6.10
2023-04-16T12:02:44.147Z,5.50
2023-04-16T12:03:51.336Z,6.18
2023-04-16T12:04:54.075Z,5.95
2023-04-16T12:06:07.949Z,5.60
2023-04-16T12:07:14.618Z,5.82
2023-04-16T12:08:30.809Z,5.55
2023-04-16T12:09:40.163Z,5.50
2023-04-16T12:10:57.554Z,5.82
2023-04-16T12:12:01.147Z,5.40
2023-04-16T12:13:17.254Z,5.32
2023-04-16T12:14:19.866Z,5.95
2023-04-16T12:15:22.098Z,5.45
2023-04-16T12:16:28.614Z,5.05
2023-04-16T12:17:33.014Z,5.15
2023-04-16T12:18:35.346Z,5.68
2023-04-16T12:20:08.594Z,5.38
2023-04-16T12:21:11.140Z,5.05
2023-04-16T12:22:13.407Z,5.45
2023-04-16T12:23:26.951Z,4.53
2023-04-16T12:24:32.419Z,4.95
2023-04-16T12:25:35.152Z,5.10
2023-04-16T12:26:42.963Z,4.45
2023-04-16T12:27:54.065Z,4.70
2023-04-16T12:29:18.644Z,4.78
2023-04-16T12:30:24.424Z,4.65
2023-04-16T12:31:38.954Z,4.40
2023-04-16T12:32:42.804Z,4.55
2023-04-16T12:34:01.907Z,4.63
2023-04-16T12:35:05.255Z,5.22
2023-04-16T12:36:20.909Z,5.75
2023-04-16T12:37:23.191Z,5.43
2023-04-16T12:38:26.437Z,5.57
2023-04-16T12:39:29.111Z,4.95
2023-04-16T12:40:32.679Z,5.00
2023-04-16T12:41:37.737Z,4.53
2023-04-16T12:42:39.983Z,5.07
2023-04-16T12:43:42.261Z,4.93
2023-04-16T12:44:46.690Z,4.68
2023-04-16T12:45:49.655Z,4.70
2023-04-16T12:46:53.483Z,4.40
2023-04-16T12:47:58.796Z,4.47
2023-04-16T12:49:01.883Z,4.60
2023-04-16T12:50:04.324Z,4.70
2023-04-16T12:51:06.697Z,4.60
2023-04-16T12:52:09.350Z,4.63
2023-04-16T12:53:12.263Z,4.68
2023-04-16T12:54:15.249Z,5.20
2023-04-16T12:55:17.826Z,4.93
2023-04-16T12:56:20.163Z,5.03
2023-04-16T12:57:28.754Z,4.88
2023-04-16T12:58:31.110Z,4.63
2023-04-16T12:59:33.425Z,4.45
2023-04-16T13:00:35.912Z,4.70
2023-04-16T13:01:38.319Z,4.38
2023-04-16T13:02:41.419Z,4.78
2023-04-16T13:03:43.955Z,4.68
2023-04-16T13:04:46.497Z,4.45
2023-04-16T13:05:48.844Z,4.85
2023-04-16T13:06:51.138Z,4.60
2023-04-16T13:07:54.843Z,4.47
2023-04-16T13:08:57.107Z,4.30
2023-04-16T13:10:00.489Z,4.40
2023-04-16T13:11:03.601Z,4.63
2023-04-16T13:12:06.553Z,4.55
2023-04-16T13:13:08.885Z,4.68
2023-04-16T13:14:11.123Z,5.00
2023-04-16T13:15:13.726Z,5.38
2023-04-16T13:16:16.653Z,5.22
2023-04-16T13:17:19.022Z,5.13
2023-04-16T13:18:21.453Z,4.82
2023-04-16T13:19:24.928Z,5.03
2023-04-16T13:20:33.459Z,5.40
2023-04-16T13:21:39.416Z,5.50
2023-04-16T13:22:43.272Z,5.18
2023-04-16T13:23:45.986Z,5.60
2023-04-16T13:24:48.913Z,5.57
2023-04-16T13:25:51.583Z,4.93
2023-04-16T13:26:54.005Z,5.30
2023-04-16T13:27:56.310Z,5.90
2023-04-16T13:28:58.620Z,6.07
2023-04-16T13:30:01.173Z,5.22
2023-04-16T13:31:05.848Z,5.50
2023-04-16T13:32:08.558Z,5.50
2023-04-16T13:33:11.152Z,5.50
2023-04-16T13:34:13.401Z,5.05
2023-04-16T13:35:15.867Z,5.20
2023-04-16T13:36:18.326Z,4.88
2023-04-16T13:37:20.623Z,5.00
2023-04-16T13:38:22.910Z,4.95
2023-04-16T13:39:25.757Z,4.63
2023-04-16T13:40:28.084Z,4.80
2023-04-16T13:41:30.855Z,4.28
2023-04-16T13:42:33.074Z,4.55
2023-04-16T13:43:35.494Z,4.60
2023-04-16T13:44:37.908Z,4.68
2023-04-16T13:45:40.284Z,4.80
2023-04-16T13:46:47.798Z,4.20
2023-04-16T13:47:51.710Z,4.25
2023-04-16T13:48:54.025Z,4.65
2023-04-16T13:49:56.530Z,4.80
2023-04-16T13:50:58.793Z,4.40
2023-04-16T13:52:01.198Z,4.43
2023-04-16T13:53:05.365Z,4.53
2023-04-16T13:54:07.883Z,4.57
2023-04-16T13:55:10.645Z,4.28
2023-04-16T13:56:12.900Z,4.20
2023-04-16T13:57:16.398Z,4.45
2023-04-16T13:58:18.639Z,4.05
2023-04-16T13:59:21.617Z,3.97
2023-04-16T14:00:25.646Z,4.15
2023-04-16T14:01:28.765Z,4.03
2023-04-16T14:02:31.885Z,3.92
2023-04-16T14:03:39.072Z,4.30
2023-04-16T14:04:41.798Z,3.90
2023-04-16T14:05:44.029Z,3.88
2023-04-16T14:06:46.493Z,3.72
2023-04-16T14:07:49.025Z,3.80
2023-04-16T14:08:51.829Z,3.90
2023-04-16T14:09:54.478Z,3.85
2023-04-16T14:10:58.298Z,3.83